Time;durP1;ratioP1;P1;durP2;ratioP2;P2;SDS_P1;SDS_P2;PMS_P1;PMS_P2;Temp;Humidity;BMP_temperature;BMP_pressure;BME280_temperature;BME280_humidity;BME280_pressure;Samples;Min_cycle;Max_cycle;Signal;HPM_P1;HPM_P2
2023/06/29 00:01:07;;;;;;;4.68;4.25;;;;;;;27.84;47.85;96389.09;5035435;28;20147;-29
2023/06/29 00:03:33;;;;;;;6.85;4.53;;;;;;;27.82;47.69;96391.66;5035699;28;20025;-30
2023/06/29 00:06:00;;;;;;;5.15;4.18;;;;;;;27.75;47.92;96386.78;5034449;28;20409;-30
2023/06/29 00:08:34;;;;;;;5.93;4.15;;;;;;;27.98;46.99;96384.19;5033859;28;20442;-29
2023/06/29 00:10:59;;;;;;;5.32;4.22;;;;;;;27.98;46.96;96387.75;5042596;28;20030;-29
2023/06/29 00:13:25;;;;;;;6.25;4.28;;;;;;;27.82;47.20;96380.53;5035301;28;20021;-29
2023/06/29 00:15:50;;;;;;;5.18;4.68;;;;;;;27.96;47.04;96393.09;5039762;28;20385;-31
2023/06/29 00:18:18;;;;;;;5.72;4.50;;;;;;;27.71;47.05;96384.31;5035024;28;20033;-31
2023/06/29 00:20:43;;;;;;;7.10;4.53;;;;;;;27.78;47.22;96380.13;5035215;28;20108;-30
2023/06/29 00:23:09;;;;;;;6.90;5.00;;;;;;;27.78;46.62;96385.72;5042061;28;20026;-29
2023/06/29 00:25:35;;;;;;;7.85;4.13;;;;;;;27.92;46.54;96389.94;5033926;28;20049;-29
2023/06/29 00:28:02;;;;;;;8.77;4.78;;;;;;;27.80;46.54;96383.13;5035019;28;20017;-30
2023/06/29 00:30:28;;;;;;;5.97;4.63;;;;;;;27.97;46.42;96383.47;5035017;28;20033;-30
2023/06/29 00:32:53;;;;;;;6.80;4.20;;;;;;;27.84;46.39;96377.94;5034271;28;20391;-31
2023/06/29 00:35:19;;;;;;;4.72;4.13;;;;;;;27.91;46.28;96382.84;5035153;28;20013;-30
2023/06/29 00:37:44;;;;;;;6.97;4.47;;;;;;;27.71;46.68;96380.78;5034371;28;20021;-29
2023/06/29 00:40:11;;;;;;;5.32;4.45;;;;;;;27.71;46.17;96375.22;5034746;28;20075;-29
2023/06/29 00:42:37;;;;;;;6.65;4.47;;;;;;;27.70;46.46;96382.09;5034516;28;20041;-30
2023/06/29 00:45:05;;;;;;;6.95;4.18;;;;;;;27.68;46.62;96377.06;5033711;28;20032;-29
2023/06/29 00:47:32;;;;;;;4.80;4.30;;;;;;;27.75;46.34;96378.44;5034793;28;20025;-30
2023/06/29 00:49:59;;;;;;;6.13;4.38;;;;;;;27.74;46.41;96382.50;5057140;28;20032;-30
2023/06/29 00:52:24;;;;;;;5.75;4.07;;;;;;;27.70;46.30;96382.09;5036546;28;20029;-30
2023/06/29 00:54:50;;;;;;;6.65;4.75;;;;;;;27.72;46.02;96394.19;5034339;28;20014;-30
2023/06/29 00:57:16;;;;;;;6.22;4.30;;;;;;;27.69;46.15;96388.97;5034184;28;20036;-30
2023/06/29 00:59:41;;;;;;;5.40;4.35;;;;;;;27.78;46.24;96388.50;5034431;28;20025;-30
2023/06/29 01:02:10;;;;;;;5.95;4.55;;;;;;;27.64;46.04;96392.63;5034775;28;20414;-30
2023/06/29 01:04:37;;;;;;;6.80;5.05;;;;;;;27.68;45.48;96393.03;5034639;28;20030;-30
2023/06/29 01:07:20;;;;;;;4.95;4.45;;;;;;;27.63;46.09;96389.09;5034216;28;20018;-30
2023/06/29 01:09:46;;;;;;;5.15;4.07;;;;;;;27.59;45.99;96385.13;5034400;28;20432;-29
2023/06/29 01:12:16;;;;;;;5.03;4.15;;;;;;;27.80;45.80;96380.34;5035864;28;20064;-31
2023/06/29 01:14:43;;;;;;;4.97;3.95;;;;;;;27.78;45.62;96388.50;5034344;28;20025;-30
2023/06/29 01:17:15;;;;;;;6.28;4.32;;;;;;;27.80;45.40;96383.88;5033681;28;20024;-29
2023/06/29 01:19:45;;;;;;;5.95;3.90;;;;;;;27.67;45.56;96372.03;5034404;28;20148;-30
2023/06/29 01:22:18;;;;;;;4.90;4.40;;;;;;;27.70;45.92;96379.28;5041951;28;20032;-30
2023/06/29 01:24:45;;;;;;;4.55;3.80;;;;;;;27.77;45.29;96376.59;5033965;28;20053;-30
2023/06/29 01:27:14;;;;;;;6.70;4.45;;;;;;;27.61;45.83;96379.75;5034140;28;20020;-30
2023/06/29 01:29:41;;;;;;;6.38;4.38;;;;;;;27.56;45.72;96377.88;5033743;28;20033;-30
2023/06/29 01:32:07;;;;;;;4.63;4.13;;;;;;;27.47;46.01;96379.78;5034244;28;20367;-30
2023/06/29 01:34:37;;;;;;;6.03;4.30;;;;;;;27.41;45.62;96373.59;5033738;28;20056;-30
2023/06/29 01:37:10;;;;;;;5.25;3.83;;;;;;;27.56;44.98;96375.09;5033574;28;20021;-30
2023/06/29 01:39:38;;;;;;;;;;;;;;;27.53;45.66;96376.88;5034392;28;20017;-30
2023/06/29 01:42:05;;;;;;;4.93;4.10;;;;;;;27.54;45.03;96373.56;5033192;28;19917;-30
2023/06/29 01:44:30;;;;;;;4.47;3.95;;;;;;;27.59;44.92;96379.56;5033672;28;20021;-29
2023/06/29 01:46:56;;;;;;;4.28;3.63;;;;;;;27.53;45.20;96369.28;5041619;28;20021;-30
2023/06/29 01:49:22;;;;;;;5.47;4.00;;;;;;;27.52;45.29;96372.59;5040840;28;20057;-30
2023/06/29 01:51:47;;;;;;;5.10;3.97;;;;;;;27.37;45.52;96373.19;5039514;28;20021;-30
2023/06/29 01:54:13;;;;;;;5.47;4.00;;;;;;;27.52;45.15;96367.03;5033202;28;20467;-30
2023/06/29 01:56:38;;;;;;;5.07;4.05;;;;;;;27.66;44.88;96362.19;5033477;28;20049;-29
2023/06/29 01:59:04;;;;;;;5.15;3.92;;;;;;;27.64;44.89;96357.16;5033583;28;20486;-30
2023/06/29 02:01:30;;;;;;;4.72;3.75;;;;;;;27.53;45.09;96363.72;5033978;28;20030;-30
2023/06/29 02:03:55;;;;;;;4.97;3.97;;;;;;;27.47;44.80;96365.84;5033777;28;20025;-30
2023/06/29 02:06:21;;;;;;;4.50;3.85;;;;;;;27.42;44.29;96361.19;5033369;28;20021;-30
2023/06/29 02:08:48;;;;;;;6.53;4.25;;;;;;;27.38;44.72;96360.75;5033472;28;20100;-30
2023/06/29 02:11:13;;;;;;;5.10;3.97;;;;;;;27.33;44.72;96361.63;5045576;28;20055;-30
2023/06/29 02:13:39;;;;;;;5.57;4.10;;;;;;;27.48;44.54;96359.00;5033140;28;20026;-30
2023/06/29 02:16:04;;;;;;;4.43;3.42;;;;;;;27.51;44.33;96360.72;5040804;28;20045;-30
2023/06/29 02:18:30;;;;;;;6.70;3.83;;;;;;;27.46;44.45;96361.56;5033202;28;20475;-30
2023/06/29 02:20:56;;;;;;;4.97;4.00;;;;;;;27.45;44.48;96360.06;5033374;28;20458;-30
2023/06/29 02:23:22;;;;;;;6.25;4.22;;;;;;;27.44;44.98;96366.22;5033160;28;20108;-31
2023/06/29 02:25:47;;;;;;;4.65;3.90;;;;;;;27.35;44.73;96361.09;5033051;28;20426;-30
2023/06/29 02:28:13;;;;;;;4.32;3.88;;;;;;;27.39;44.25;96362.25;5040542;28;20057;-30
2023/06/29 02:30:38;;;;;;;7.15;3.97;;;;;;;27.35;44.62;96361.81;5033401;28;20033;-30
2023/06/29 02:33:03;;;;;;;5.13;3.83;;;;;;;27.35;44.90;96366.66;5032929;28;20383;-30
2023/06/29 02:35:29;;;;;;;6.22;4.10;;;;;;;27.28;44.60;96373.66;5033633;28;20028;-30
2023/06/29 02:37:54;;;;;;;6.05;3.83;;;;;;;27.32;44.49;96368.50;5033213;28;20100;-30
2023/06/29 02:40:20;;;;;;;7.05;3.97;;;;;;;27.07;45.54;96361.72;5034788;28;20028;-30
2023/06/29 02:42:45;;;;;;;5.43;3.97;;;;;;;27.10;44.99;96360.63;5038718;28;20557;-30
2023/06/29 02:45:11;;;;;;;4.85;3.92;;;;;;;27.25;44.46;96365.63;5033364;28;20112;-29
2023/06/29 02:47:36;;;;;;;4.82;4.00;;;;;;;27.38;44.12;96366.31;5032894;28;20032;-30
2023/06/29 02:50:02;;;;;;;8.90;4.20;;;;;;;27.22;44.39;96364.66;5032821;28;20044;-30
2023/06/29 02:52:27;;;;;;;4.72;3.63;;;;;;;27.29;44.54;96369.56;5032715;28;20029;-30
2023/06/29 02:54:52;;;;;;;6.15;3.35;;;;;;;27.23;44.21;96368.19;5033327;28;20091;-30
2023/06/29 02:57:18;;;;;;;3.90;3.50;;;;;;;27.18;44.77;96364.25;5035234;28;20021;-30
2023/06/29 02:59:43;;;;;;;5.78;3.72;;;;;;;27.12;44.69;96364.34;5037006;28;20449;-30
2023/06/29 03:02:09;;;;;;;5.13;3.83;;;;;;;27.11;44.98;96370.47;5036723;28;20382;-30
2023/06/29 03:04:34;;;;;;;5.57;3.92;;;;;;;27.10;44.74;96371.75;5045768;28;20056;-30
2023/06/29 03:07:00;;;;;;;5.28;3.97;;;;;;;27.10;44.72;96377.31;5036650;28;20021;-30
2023/06/29 03:09:25;;;;;;;6.03;3.65;;;;;;;27.23;44.14;96377.28;5036590;28;20025;-30
2023/06/29 03:11:50;;;;;;;4.88;3.92;;;;;;;27.25;44.39;96374.72;5036512;28;20455;-30
2023/06/29 03:14:16;;;;;;;5.20;3.90;;;;;;;27.14;44.27;96370.13;5037062;28;20411;-30
2023/06/29 03:16:41;;;;;;;5.20;4.00;;;;;;;27.20;44.18;96366.50;5036521;28;20390;-29
2023/06/29 03:19:07;;;;;;;5.05;4.13;;;;;;;27.02;44.75;96373.69;5043757;28;20481;-30
2023/06/29 03:21:32;;;;;;;6.78;3.67;;;;;;;26.91;45.07;96371.13;5042781;28;20040;-30
2023/06/29 03:23:58;;;;;;;5.40;3.78;;;;;;;27.23;44.44;96371.72;5037855;28;20025;-30
2023/06/29 03:26:24;;;;;;;6.55;3.70;;;;;;;27.01;44.70;96358.28;5036740;28;20071;-30
2023/06/29 03:28:49;;;;;;;6.95;4.53;;;;;;;27.12;44.63;96372.72;5036025;28;20025;-30
2023/06/29 03:31:15;;;;;;;5.28;3.65;;;;;;;27.03;44.74;96364.81;5036168;28;20450;-30
2023/06/29 03:33:40;;;;;;;5.40;4.18;;;;;;;27.09;44.19;96371.00;5036122;28;20021;-30
2023/06/29 03:36:09;;;;;;;6.38;4.00;;;;;;;26.81;44.92;96368.78;5035398;28;20025;-30
2023/06/29 03:38:35;;;;;;;6.38;4.05;;;;;;;27.08;44.29;96371.53;5035954;28;20018;-30
2023/06/29 03:41:00;;;;;;;6.25;3.55;;;;;;;26.90;44.40;96369.63;5036082;28;20112;-30
2023/06/29 03:43:26;;;;;;;5.07;3.67;;;;;;;26.94;44.55;96372.88;5035568;28;20115;-29
2023/06/29 03:45:51;;;;;;;4.78;3.78;;;;;;;27.17;44.17;96359.97;5039877;28;20032;-30
2023/06/29 03:48:17;;;;;;;4.57;3.50;;;;;;;26.97;44.32;96366.19;5038364;28;20021;-30
2023/06/29 03:50:42;;;;;;;5.15;3.40;;;;;;;27.05;43.93;96367.06;5043305;28;20029;-30
2023/06/29 03:53:08;;;;;;;6.65;3.58;;;;;;;27.16;43.66;96366.81;5042111;28;20024;-30
2023/06/29 03:55:33;;;;;;;5.65;3.45;;;;;;;27.19;43.52;96374.09;5036553;28;20026;-30
2023/06/29 03:57:59;;;;;;;3.90;3.55;;;;;;;26.89;43.76;96370.91;5036060;28;20355;-29
2023/06/29 04:00:25;;;;;;;4.13;3.20;;;;;;;26.99;43.75;96374.75;5036091;28;20021;-30
2023/06/29 04:02:50;;;;;;;3.85;3.33;;;;;;;27.08;43.94;96372.28;5042704;28;20533;-30
2023/06/29 04:05:16;;;;;;;5.00;3.67;;;;;;;27.02;43.79;96379.25;5036278;28;20025;-31
2023/06/29 04:07:41;;;;;;;5.63;3.47;;;;;;;27.00;43.66;96376.25;5034734;28;20026;-31
2023/06/29 04:10:07;;;;;;;3.92;3.20;;;;;;;26.90;44.24;96377.97;5035190;28;20022;-30
2023/06/29 04:12:33;;;;;;;5.53;3.40;;;;;;;26.90;43.46;96387.06;5035425;28;20025;-30
2023/06/29 04:14:58;;;;;;;5.40;3.47;;;;;;;26.94;43.60;96378.44;5035067;28;20021;-30
2023/06/29 04:17:24;;;;;;;4.43;3.00;;;;;;;27.04;43.29;96382.25;5035455;28;20022;-30
2023/06/29 04:19:49;;;;;;;3.78;3.38;;;;;;;27.11;43.24;96385.13;5051214;28;20423;-30
2023/06/29 04:22:14;;;;;;;5.63;3.58;;;;;;;27.03;42.97;96386.34;5038794;28;20541;-30
2023/06/29 04:24:40;;;;;;;5.93;3.03;;;;;;;27.01;43.53;96386.13;5039000;28;20025;-30
2023/06/29 04:27:06;;;;;;;5.30;3.40;;;;;;;26.92;43.23;96389.31;5034897;28;20029;-30
2023/06/29 04:29:31;;;;;;;5.30;3.20;;;;;;;26.90;43.64;96389.09;5035323;28;20028;-30
2023/06/29 04:31:58;;;;;;;4.35;3.50;;;;;;;26.88;43.24;96388.88;5034606;28;20022;-30
2023/06/29 04:34:23;;;;;;;4.40;3.38;;;;;;;27.11;43.34;96392.72;5042360;28;20435;-31
2023/06/29 04:36:48;;;;;;;4.90;3.08;;;;;;;27.09;43.30;96384.16;5035124;28;20100;-30
2023/06/29 04:39:15;;;;;;;4.10;3.10;;;;;;;27.12;43.18;96385.88;5034744;28;20029;-30
2023/06/29 04:41:41;;;;;;;5.30;2.97;;;;;;;26.98;43.43;96389.97;5034683;28;20124;-30
2023/06/29 04:44:08;;;;;;;4.25;2.72;;;;;;;27.01;42.96;96392.44;5034454;28;20026;-30
2023/06/29 04:46:38;;;;;;;7.47;3.15;;;;;;;26.98;42.78;96401.84;5035260;28;20029;-30
2023/06/29 04:49:05;;;;;;;6.68;3.33;;;;;;;26.93;42.85;96391.59;5035045;28;20560;-29
2023/06/29 04:51:31;;;;;;;8.20;3.60;;;;;;;26.84;42.90;96386.41;5034678;28;20053;-30
2023/06/29 04:53:56;;;;;;;4.68;3.13;;;;;;;26.95;42.65;96386.25;5034486;28;20099;-30
2023/06/29 04:56:21;;;;;;;4.53;2.90;;;;;;;26.95;42.67;96394.59;5034525;28;20026;-29
2023/06/29 04:58:47;;;;;;;4.45;2.80;;;;;;;26.94;42.36;96389.56;5034834;28;20021;-30
2023/06/29 05:01:12;;;;;;;3.63;2.83;;;;;;;26.88;42.71;96397.97;5034640;28;20017;-30
2023/06/29 05:03:38;;;;;;;3.90;3.20;;;;;;;26.99;42.60;96388.69;5034832;28;20455;-29
2023/06/29 05:06:04;;;;;;;3.58;2.95;;;;;;;26.88;42.69;96394.44;5034271;28;20054;-30
2023/06/29 05:08:30;;;;;;;4.95;3.22;;;;;;;26.90;42.03;96405.78;5034137;28;20467;-30
2023/06/29 05:10:56;;;;;;;4.28;2.90;;;;;;;26.98;42.52;96398.31;5034472;28;20029;-30
2023/06/29 05:13:21;;;;;;;4.35;3.17;;;;;;;27.08;41.88;96396.59;5034574;28;20426;-30
2023/06/29 05:15:48;;;;;;;4.82;3.20;;;;;;;26.99;42.27;96402.59;5034670;28;20028;-30
2023/06/29 05:18:14;;;;;;;5.32;2.63;;;;;;;26.97;42.24;96400.34;5033993;28;20463;-29
2023/06/29 05:20:40;;;;;;;7.10;3.20;;;;;;;27.02;42.21;96398.75;5033557;28;20047;-31
2023/06/29 05:23:06;;;;;;;5.00;3.05;;;;;;;26.88;42.06;96397.97;5034033;28;20025;-31
2023/06/29 05:25:31;;;;;;;4.18;2.75;;;;;;;27.10;41.63;96403.13;5034362;28;20124;-30
2023/06/29 05:27:57;;;;;;;6.53;3.10;;;;;;;27.10;41.61;96408.69;5034495;28;20025;-30
2023/06/29 05:30:23;;;;;;;7.70;3.88;;;;;;;27.08;42.05;96413.28;5033762;28;20025;-30
2023/06/29 05:32:48;;;;;;;4.38;2.42;;;;;;;27.14;42.15;96408.38;5041289;28;20036;-30
2023/06/29 05:35:14;;;;;;;5.35;2.67;;;;;;;27.13;41.77;96413.19;5033732;28;20022;-30
2023/06/29 05:37:40;;;;;;;6.53;2.63;;;;;;;27.12;41.96;96411.69;5032316;28;20379;-30
2023/06/29 05:40:06;;;;;;;9.20;2.92;;;;;;;27.14;41.44;96417.47;5033450;28;20033;-30
2023/06/29 05:42:32;;;;;;;5.05;2.83;;;;;;;27.14;41.97;96420.25;5040831;28;20045;-30
2023/06/29 05:45:04;;;;;;;4.35;2.60;;;;;;;27.05;42.49;96414.38;5038529;28;20059;-30
2023/06/29 05:47:29;;;;;;;6.50;2.90;;;;;;;27.22;41.99;96420.34;5033863;28;20723;-30
2023/06/29 05:49:55;;;;;;;4.25;2.70;;;;;;;27.10;42.46;96425.38;5033557;28;20057;-30
2023/06/29 05:52:20;;;;;;;4.00;2.97;;;;;;;27.06;42.09;96424.22;5033736;28;20071;-30
2023/06/29 05:54:46;;;;;;;4.78;2.67;;;;;;;27.26;42.51;96429.13;5033878;28;20017;-30
2023/06/29 05:57:11;;;;;;;4.63;2.58;;;;;;;27.13;42.15;96423.56;5033214;28;20510;-29
2023/06/29 05:59:36;;;;;;;3.35;2.58;;;;;;;27.21;42.01;96420.88;5034007;28;20029;-30
2023/06/29 06:02:02;;;;;;;4.97;3.40;;;;;;;27.17;42.09;96438.66;5033551;28;20017;-32
2023/06/29 06:04:28;;;;;;;3.50;2.40;;;;;;;27.15;42.36;96427.31;5033951;28;20029;-33
2023/06/29 06:06:53;;;;;;;4.18;2.75;;;;;;;27.14;42.48;96436.19;5033692;28;20021;-32
2023/06/29 06:09:18;;;;;;;4.60;3.05;;;;;;;27.32;42.49;96432.53;5033521;28;20040;-32
2023/06/29 06:11:44;;;;;;;3.90;2.58;;;;;;;27.33;42.31;96436.06;5033687;28;20021;-32
2023/06/29 06:14:09;;;;;;;4.38;3.00;;;;;;;27.43;41.60;96442.69;5033260;28;20021;-32
2023/06/29 06:16:35;;;;;;;4.85;2.60;;;;;;;27.21;42.33;96429.97;5032938;28;20033;-32
2023/06/29 06:19:00;;;;;;;4.88;3.47;;;;;;;27.19;42.39;96440.91;5033275;28;20029;-32
2023/06/29 06:21:26;;;;;;;4.25;2.60;;;;;;;27.22;42.26;96442.59;5033513;28;20371;-32
2023/06/29 06:23:53;;;;;;;7.07;2.92;;;;;;;27.23;41.58;96432.22;5032897;28;20079;-30
2023/06/29 06:26:18;;;;;;;5.20;2.78;;;;;;;27.29;41.88;96441.97;5033519;28;20017;-30
2023/06/29 06:28:44;;;;;;;6.30;2.85;;;;;;;27.23;41.79;96437.78;5032996;28;20510;-30
2023/06/29 06:31:09;;;;;;;3.83;2.60;;;;;;;27.12;41.80;96433.94;5033638;28;20017;-30
2023/06/29 06:33:35;;;;;;;4.13;2.70;;;;;;;27.21;41.55;96441.09;5037260;28;20013;-30
2023/06/29 06:36:00;;;;;;;4.13;2.40;;;;;;;27.33;41.74;96450.72;5037294;28;20373;-32
2023/06/29 06:38:26;;;;;;;4.22;2.70;;;;;;;27.40;41.66;96452.88;5044008;28;20529;-30
2023/06/29 06:40:51;;;;;;;3.42;2.83;;;;;;;27.38;41.67;96443.56;5036984;28;20402;-30
2023/06/29 06:43:18;;;;;;;4.05;2.63;;;;;;;27.26;41.68;96445.81;5037139;28;20026;-30
2023/06/29 06:45:44;;;;;;;4.05;2.33;;;;;;;27.28;42.22;96446.03;5037345;28;20024;-30
2023/06/29 06:48:09;;;;;;;4.50;2.72;;;;;;;27.26;41.97;96442.28;5036913;28;20044;-31
2023/06/29 06:50:35;;;;;;;3.70;2.65;;;;;;;27.45;41.38;96448.44;5038947;28;20454;-30
2023/06/29 06:53:00;;;;;;;5.15;2.83;;;;;;;27.42;42.06;96443.97;5041831;28;20451;-30
2023/06/29 06:55:26;;;;;;;3.08;2.50;;;;;;;27.46;41.97;96449.94;5036890;28;20017;-30
2023/06/29 06:57:52;;;;;;;6.60;3.00;;;;;;;27.40;42.27;96452.13;5036812;28;20459;-31
2023/06/29 07:00:18;;;;;;;3.50;2.65;;;;;;;27.45;42.21;96449.19;5036518;28;20033;-30
2023/06/29 07:02:43;;;;;;;3.78;2.80;;;;;;;27.40;42.22;96452.13;5036947;28;20025;-30
2023/06/29 07:05:10;;;;;;;4.10;2.60;;;;;;;27.51;42.09;96449.84;5043627;28;20101;-30
2023/06/29 07:07:35;;;;;;;4.00;2.45;;;;;;;27.50;42.64;96465.06;5037052;28;20029;-30
2023/06/29 07:10:01;;;;;;;3.80;2.83;;;;;;;27.43;42.89;96462.94;5036499;28;20024;-30
2023/06/29 07:12:27;;;;;;;3.40;2.55;;;;;;;27.51;42.97;96465.81;5035962;28;20064;-30
2023/06/29 07:14:52;;;;;;;3.10;2.55;;;;;;;27.57;43.02;96460.88;5036154;28;20064;-30
2023/06/29 07:17:17;;;;;;;5.32;2.45;;;;;;;27.69;42.53;96455.84;5036614;28;20109;-30
2023/06/29 07:19:43;;;;;;;3.30;2.50;;;;;;;27.60;43.05;96464.63;5036029;28;20029;-30
2023/06/29 07:22:08;;;;;;;4.55;2.85;;;;;;;27.71;43.02;96464.38;5036775;28;20112;-31
2023/06/29 07:24:34;;;;;;;5.03;2.75;;;;;;;27.77;42.64;96465.03;5036194;28;20108;-30
2023/06/29 07:26:59;;;;;;;4.03;2.50;;;;;;;27.59;42.82;96468.69;5049796;28;20025;-30
2023/06/29 07:29:26;;;;;;;4.60;2.92;;;;;;;27.72;42.82;96463.09;5036160;28;20031;-31
2023/06/29 07:31:52;;;;;;;3.88;2.92;;;;;;;27.72;43.11;96468.66;5036164;28;20466;-30
2023/06/29 07:34:22;;;;;;;6.15;3.28;;;;;;;27.54;42.87;96473.09;5036575;28;20025;-30
2023/06/29 07:36:48;;;;;;;3.97;2.90;;;;;;;27.78;42.76;96472.09;5037334;28;20061;-30
2023/06/29 07:39:13;;;;;;;3.97;2.92;;;;;;;27.65;43.34;96466.56;5052132;28;20048;-30
2023/06/29 07:41:39;;;;;;;4.40;2.80;;;;;;;27.71;43.15;96464.38;5042146;28;20128;-30
2023/06/29 07:44:04;;;;;;;4.55;2.75;;;;;;;27.95;42.68;96469.66;5035773;28;20048;-31
2023/06/29 07:46:31;;;;;;;4.05;3.20;;;;;;;27.90;42.98;96464.97;5036553;28;20435;-30
2023/06/29 07:48:58;;;;;;;3.55;2.90;;;;;;;27.86;42.90;96464.56;5035794;28;20028;-30
2023/06/29 07:51:24;;;;;;;4.47;3.10;;;;;;;27.94;42.84;96475.78;5035918;28;20441;-30
2023/06/29 07:53:52;;;;;;;3.30;2.60;;;;;;;27.85;43.20;96474.19;5035693;28;20104;-32
2023/06/29 07:56:18;;;;;;;4.63;3.33;;;;;;;27.75;43.63;96475.94;5035898;28;20013;-30
2023/06/29 07:58:44;;;;;;;4.07;2.83;;;;;;;27.89;43.23;96469.06;5035721;28;20537;-30
2023/06/29 08:01:09;;;;;;;4.97;3.20;;;;;;;27.77;43.46;96470.59;5035856;28;20060;-30
2023/06/29 08:03:34;;;;;;;4.50;3.38;;;;;;;27.98;43.83;96476.94;5035730;28;20092;-31
2023/06/29 08:06:00;;;;;;;3.25;2.92;;;;;;;27.88;44.06;96479.44;5035451;28;20032;-32
2023/06/29 08:08:30;;;;;;;5.63;3.08;;;;;;;28.06;43.47;96477.78;5048900;28;20414;-31
2023/06/29 08:10:56;;;;;;;3.30;2.60;;;;;;;28.10;43.31;96480.97;5035384;28;20117;-31
2023/06/29 08:13:23;;;;;;;3.40;2.83;;;;;;;27.83;44.25;96482.34;5035680;28;20017;-30
2023/06/29 08:15:48;;;;;;;3.28;2.95;;;;;;;27.84;43.71;96489.41;5035534;28;20022;-30
2023/06/29 08:18:14;;;;;;;4.90;2.90;;;;;;;28.02;43.54;96477.38;5035432;28;20037;-30
2023/06/29 08:20:39;;;;;;;5.55;3.20;;;;;;;28.13;43.60;96479.88;5035364;28;20032;-30
2023/06/29 08:23:05;;;;;;;4.15;2.83;;;;;;;27.94;44.04;96479.34;5035067;28;20571;-30
2023/06/29 08:25:30;;;;;;;3.53;3.03;;;;;;;28.01;44.26;96481.44;5035276;28;20076;-30
2023/06/29 08:27:55;;;;;;;3.80;2.80;;;;;;;28.20;43.85;96470.13;5035156;28;20029;-30
2023/06/29 08:30:21;;;;;;;5.28;2.83;;;;;;;28.05;44.15;96481.84;5035095;28;20051;-30
2023/06/29 08:32:48;;;;;;;4.30;2.85;;;;;;;27.91;44.27;96474.84;5035230;28;20071;-30
2023/06/29 08:35:14;;;;;;;4.43;3.40;;;;;;;28.07;43.89;96484.09;5035065;28;20029;-30
2023/06/29 08:37:40;;;;;;;3.63;2.80;;;;;;;28.01;43.99;96484.22;5034947;28;20036;-30
2023/06/29 08:40:06;;;;;;;4.22;3.08;;;;;;;28.02;43.97;96482.94;5034925;28;20029;-30
2023/06/29 08:42:31;;;;;;;3.97;2.88;;;;;;;28.08;44.06;96480.75;5037472;28;20045;-30
2023/06/29 08:44:57;;;;;;;5.32;3.25;;;;;;;27.90;44.42;96478.91;5039221;28;20018;-30
2023/06/29 08:47:23;;;;;;;4.85;3.03;;;;;;;28.13;44.06;96482.69;5041438;28;20029;-31
2023/06/29 08:49:51;;;;;;;4.10;3.22;;;;;;;28.02;44.31;96485.72;5034700;28;20394;-30
2023/06/29 08:52:18;;;;;;;4.10;3.40;;;;;;;28.13;44.05;96482.69;5034902;28;20035;-30
2023/06/29 08:54:45;;;;;;;4.35;3.05;;;;;;;27.99;44.84;96484.00;5034097;28;20021;-30
2023/06/29 08:57:10;;;;;;;5.07;3.00;;;;;;;27.99;44.94;96486.06;5041494;28;20063;-30
2023/06/29 08:59:40;;;;;;;3.40;2.95;;;;;;;28.00;44.87;96491.09;5041640;28;20025;-30
2023/06/29 09:02:06;;;;;;;4.50;3.40;;;;;;;28.15;44.61;96482.13;5034544;28;20025;-30
2023/06/29 09:04:32;;;;;;;7.88;3.90;;;;;;;27.98;45.04;96487.34;5034286;28;20060;-30
2023/06/29 09:06:57;;;;;;;3.90;3.20;;;;;;;28.14;44.55;96489.00;5034250;28;20056;-30
2023/06/29 09:09:23;;;;;;;3.30;2.72;;;;;;;28.08;44.76;96485.59;5034559;28;20017;-30
2023/06/29 09:11:49;;;;;;;5.88;3.30;;;;;;;28.18;44.66;96479.03;5034462;28;20765;-30
2023/06/29 09:14:14;;;;;;;4.78;3.20;;;;;;;28.14;44.62;96481.38;5033996;28;20052;-30
2023/06/29 09:16:51;;;;;;;4.63;3.50;;;;;;;28.33;44.75;96483.25;5034774;28;20470;-30
2023/06/29 09:19:18;;;;;;;5.47;3.28;;;;;;;28.37;44.85;96478.09;5034286;28;20029;-30
2023/06/29 09:21:47;;;;;;;4.32;2.92;;;;;;;28.33;44.48;96486.03;5033784;28;20025;-30
2023/06/29 09:24:19;;;;;;;5.57;3.22;;;;;;;28.24;45.01;96479.66;5034378;28;20032;-31
2023/06/29 09:26:48;;;;;;;4.93;3.50;;;;;;;28.43;44.60;96475.91;5033970;28;20375;-30
2023/06/29 09:29:14;;;;;;;4.15;3.35;;;;;;;28.30;45.24;96484.34;5034619;28;20411;-30
2023/06/29 09:31:39;;;;;;;4.53;3.65;;;;;;;28.38;45.20;96479.56;5034048;28;20029;-30
2023/06/29 09:34:18;;;;;;;8.45;3.60;;;;;;;28.40;44.95;96483.31;5049027;28;20118;-31
2023/06/29 09:36:45;;;;;;;6.18;3.75;;;;;;;28.22;45.51;96481.47;5039106;28;20471;-32
2023/06/29 09:39:11;;;;;;;11.45;3.42;;;;;;;28.36;45.34;96471.75;5035292;28;20036;-30
2023/06/29 09:41:50;;;;;;;3.88;3.03;;;;;;;28.31;45.43;96469.13;5040229;28;20095;-30
2023/06/29 09:44:20;;;;;;;5.88;3.50;;;;;;;28.37;45.35;96475.28;5033337;28;20024;-30
2023/06/29 09:46:49;;;;;;;5.07;3.90;;;;;;;28.26;45.94;96483.94;5034323;28;20021;-30
2023/06/29 09:49:15;;;;;;;5.57;3.65;;;;;;;28.22;45.73;96473.84;5033735;28;20028;-30
2023/06/29 09:51:41;;;;;;;7.60;4.00;;;;;;;28.33;45.75;96472.09;5033944;28;20017;-30
2023/06/29 09:54:14;;;;;;;5.78;3.70;;;;;;;28.24;45.96;96473.31;5033719;28;20021;-30
2023/06/29 09:56:40;;;;;;;5.15;3.83;;;;;;;28.42;45.21;96480.00;5033717;28;20051;-30
2023/06/29 09:59:10;;;;;;;5.75;3.40;;;;;;;28.38;45.63;96474.00;5033472;28;20034;-30
2023/06/29 10:01:36;;;;;;;4.75;3.53;;;;;;;28.28;45.66;96475.78;5033295;28;20044;-30
2023/06/29 10:04:04;;;;;;;5.28;3.72;;;;;;;28.38;45.59;96469.16;5033463;28;20025;-30
2023/06/29 10:06:43;;;;;;;4.53;3.67;;;;;;;28.30;45.85;96467.63;5033584;28;20052;-30
2023/06/29 10:09:13;;;;;;;8.20;3.90;;;;;;;28.46;45.20;96469.97;5033726;28;20096;-30
2023/06/29 10:11:41;;;;;;;6.47;3.67;;;;;;;28.36;45.80;96471.75;5033648;28;20021;-30
2023/06/29 10:14:08;;;;;;;7.90;4.05;;;;;;;28.34;45.83;96474.34;5033208;28;20079;-30
2023/06/29 10:16:38;;;;;;;5.53;4.03;;;;;;;28.36;45.77;96459.84;5033531;28;20021;-30
2023/06/29 10:19:17;;;;;;;4.57;3.70;;;;;;;28.44;45.56;96469.00;5033050;28;20034;-30
2023/06/29 10:21:44;;;;;;;5.50;3.80;;;;;;;28.54;45.67;96470.81;5033537;28;20024;-31
2023/06/29 10:24:14;;;;;;;4.75;4.25;;;;;;;28.53;45.67;96471.34;5033273;28;20433;-30
2023/06/29 10:26:41;;;;;;;4.25;3.60;;;;;;;28.43;45.99;96461.97;5033069;28;20467;-30
2023/06/29 10:29:07;;;;;;;8.13;4.25;;;;;;;28.46;45.95;96469.22;5033420;28;20056;-30
2023/06/29 10:31:33;;;;;;;4.93;3.92;;;;;;;28.51;45.96;96473.94;5033042;28;20021;-31
2023/06/29 10:33:59;;;;;;;4.38;3.80;;;;;;;28.48;46.03;96464.59;5033121;28;20083;-30
2023/06/29 10:36:25;;;;;;;5.57;3.53;;;;;;;28.42;46.06;96464.00;5040253;28;20498;-31
2023/06/29 10:38:51;;;;;;;5.88;3.85;;;;;;;28.42;46.21;96461.22;5033135;28;20028;-30
2023/06/29 10:41:28;;;;;;;3.67;3.30;;;;;;;28.42;46.01;96454.88;5033065;28;20038;-30
2023/06/29 10:44:11;;;;;;;5.72;3.88;;;;;;;28.45;46.17;96457.31;5032746;28;20018;-30
2023/06/29 10:46:47;;;;;;;5.47;3.67;;;;;;;28.55;45.98;96463.94;5040966;28;20022;-30
2023/06/29 10:49:26;;;;;;;4.72;3.45;;;;;;;28.54;45.86;96456.09;5040160;28;20028;-30
2023/06/29 10:51:53;;;;;;;6.25;3.40;;;;;;;28.45;46.25;96448.94;5040135;28;20024;-30
2023/06/29 10:54:26;;;;;;;5.47;3.45;;;;;;;28.42;46.39;96449.31;5033105;28;20022;-30
2023/06/29 10:57:06;;;;;;;4.50;3.15;;;;;;;28.46;46.00;96449.69;5032664;28;20021;-31
2023/06/29 10:59:33;;;;;;;5.13;3.55;;;;;;;28.53;46.13;96449.03;5033180;28;20516;-31
2023/06/29 11:01:59;;;;;;;3.92;3.50;;;;;;;28.59;45.90;96444.78;5039934;28;20127;-30
2023/06/29 11:04:24;;;;;;;4.15;3.60;;;;;;;28.64;46.05;96437.56;5032911;28;20493;-30
2023/06/29 11:06:50;;;;;;;7.90;3.42;;;;;;;28.58;45.77;96448.13;5031520;28;20033;-30
2023/06/29 11:09:16;;;;;;;5.28;3.47;;;;;;;28.55;45.79;96441.59;5041987;28;20378;-31
2023/06/29 11:11:47;;;;;;;6.50;4.00;;;;;;;28.72;45.51;96434.81;5032798;28;20522;-30
2023/06/29 11:14:13;;;;;;;10.68;4.38;;;;;;;28.59;45.57;96432.88;5032971;28;20022;-30
2023/06/29 11:16:39;;;;;;;7.47;4.25;;;;;;;28.54;45.68;96437.31;5032495;28;20021;-30
2023/06/29 11:19:05;;;;;;;5.40;3.80;;;;;;;28.63;45.52;96436.06;5036181;28;20048;-31
2023/06/29 11:21:31;;;;;;;6.28;4.30;;;;;;;28.62;45.95;96419.88;5036185;28;20026;-30
2023/06/29 11:23:57;;;;;;;5.65;4.03;;;;;;;28.68;45.70;96424.03;5036288;28;20467;-30
2023/06/29 11:26:23;;;;;;;5.68;3.90;;;;;;;28.44;46.24;96425.13;5040505;28;20017;-30
2023/06/29 11:28:49;;;;;;;5.57;4.13;;;;;;;28.68;45.63;96420.47;5043522;28;20105;-30
2023/06/29 11:31:16;;;;;;;9.63;3.90;;;;;;;28.68;45.69;96415.66;5038028;28;20029;-30